createdAt,value
2018-02-25T00:00:40.469Z,69.86
2018-02-25T00:03:08.067Z,71.87
2018-02-25T00:05:35.611Z,73.02
2018-02-25T00:08:03.198Z,73.54
2018-02-25T00:10:30.802Z,72.94
2018-02-25T00:12:58.351Z,73.38
2018-02-25T00:15:25.940Z,73.54
2018-02-25T00:17:53.490Z,72.82
2018-02-25T00:20:21.034Z,72.31
2018-02-25T00:22:48.582Z,72.82
2018-02-25T00:25:16.177Z,74.14
2018-02-25T00:27:43.726Z,73.79
2018-02-25T00:30:11.275Z,73.30
2018-02-25T00:32:38.925Z,73.75
2018-02-25T00:35:06.476Z,72.85
2018-02-25T00:37:34.018Z,73.18
2018-02-25T00:40:01.610Z,75.30
2018-02-25T00:42:29.178Z,74.10
2018-02-25T00:44:56.771Z,74.52
2018-02-25T00:47:24.328Z,73.47
2018-02-25T00:49:51.918Z,75.20
2018-02-25T00:52:19.551Z,74.47
2018-02-25T00:54:47.146Z,74.93
2018-02-25T00:57:14.716Z,75.17
2018-02-25T00:59:42.300Z,75.49
2018-02-25T01:02:09.846Z,74.54
2018-02-25T01:04:37.440Z,75.36
2018-02-25T01:07:05.037Z,76.66
2018-02-25T01:09:32.608Z,75.27
2018-02-25T01:12:00.186Z,74.06
2018-02-25T01:14:27.804Z,75.08
2018-02-25T01:16:55.392Z,75.66
2018-02-25T01:19:22.939Z,75.25
2018-02-25T01:21:50.481Z,77.24
2018-02-25T01:24:18.029Z,76.11
2018-02-25T01:26:45.703Z,73.71
2018-02-25T01:31:47.030Z,74.89
2018-02-25T01:34:14.580Z,75.18
2018-02-25T01:36:42.170Z,73.71
2018-02-25T01:39:09.756Z,74.33
2018-02-25T01:41:37.307Z,73.53
2018-02-25T01:44:04.852Z,73.01
2018-02-25T01:46:32.398Z,73.87
2018-02-25T01:48:59.989Z,74.82
2018-02-25T01:51:27.527Z,72.60
2018-02-25T01:53:55.075Z,72.87
2018-02-25T01:56:22.627Z,74.61
2018-02-25T01:58:50.186Z,74.34
2018-02-25T02:01:17.745Z,74.44
2018-02-25T02:03:45.294Z,75.40
2018-02-25T02:06:12.844Z,74.60
2018-02-25T02:08:40.428Z,76.66
2018-02-25T02:11:07.981Z,75.76
2018-02-25T02:13:35.531Z,76.58
2018-02-25T02:16:03.125Z,76.60
2018-02-25T02:18:30.678Z,77.39
2018-02-25T02:20:58.267Z,77.08
2018-02-25T02:23:25.818Z,77.19
2018-02-25T02:25:53.406Z,77.21
2018-02-25T02:28:21.872Z,77.26
2018-02-25T02:30:49.458Z,78.37
2018-02-25T02:33:17.045Z,77.42
2018-02-25T02:35:44.678Z,77.17
2018-02-25T02:38:13.015Z,76.66
2018-02-25T02:40:40.559Z,77.91
2018-02-25T02:43:08.163Z,77.76
2018-02-25T02:45:36.557Z,77.87
2018-02-25T02:48:04.817Z,78.13
2018-02-25T02:50:33.129Z,77.45
2018-02-25T02:53:00.686Z,78.92
2018-02-25T02:55:29.177Z,76.77
2018-02-25T02:57:56.722Z,77.03
2018-02-25T03:00:24.316Z,78.39
2018-02-25T03:02:52.582Z,77.41
2018-02-25T03:05:20.979Z,76.19
2018-02-25T03:07:49.343Z,78.03
2018-02-25T03:10:17.721Z,76.48
2018-02-25T03:12:45.271Z,77.99
2018-02-25T03:15:13.646Z,77.20
2018-02-25T03:17:41.191Z,78.12
2018-02-25T03:20:08.750Z,77.33
2018-02-25T03:22:37.121Z,78.00
2018-02-25T03:25:05.467Z,77.54
2018-02-25T03:27:33.060Z,78.89
2018-02-25T03:30:01.327Z,78.14
2018-02-25T03:32:28.915Z,78.39
2018-02-25T03:34:56.471Z,78.26
2018-02-25T03:37:24.020Z,78.96
2018-02-25T03:39:52.393Z,79.30
2018-02-25T03:42:19.977Z,80.04
2018-02-25T03:44:47.526Z,80.18
2018-02-25T03:47:15.106Z,80.22
2018-02-25T03:49:43.447Z,80.04
2018-02-25T03:52:11.007Z,79.76
2018-02-25T03:54:38.561Z,80.72
2018-02-25T03:57:06.156Z,81.07
2018-02-25T03:59:33.709Z,79.72
2018-02-25T04:02:01.258Z,81.03
2018-02-25T04:04:28.840Z,79.67
2018-02-25T04:06:57.326Z,79.39
2018-02-25T04:09:24.907Z,79.09
2018-02-25T04:11:53.368Z,78.93
2018-02-25T04:14:20.994Z,78.68
2018-02-25T04:16:49.326Z,78.45
2018-02-25T04:19:16.905Z,79.44
2018-02-25T04:21:45.289Z,79.21
2018-02-25T04:24:12.878Z,79.33
2018-02-25T04:26:40.467Z,79.78
2018-02-25T04:29:08.071Z,79.93
2018-02-25T04:31:36.326Z,80.12
2018-02-25T04:34:03.877Z,80.51
2018-02-25T04:36:32.345Z,81.14
2018-02-25T04:39:00.682Z,80.43
2018-02-25T04:41:28.276Z,81.00
2018-02-25T04:43:55.827Z,80.42
2018-02-25T04:46:23.376Z,80.88
2018-02-25T04:48:50.922Z,81.66
2018-02-25T04:51:18.483Z,81.69
2018-02-25T04:53:46.035Z,81.35
2018-02-25T04:56:13.586Z,81.41
2018-02-25T04:58:41.130Z,82.18
2018-02-25T05:01:08.678Z,82.57
2018-02-25T05:03:37.152Z,81.92
2018-02-25T05:06:04.702Z,81.94
2018-02-25T05:08:32.253Z,82.90
2018-02-25T05:10:59.803Z,83.03
2018-02-25T05:13:27.359Z,82.36
2018-02-25T05:15:54.913Z,83.36
2018-02-25T05:18:23.384Z,83.08
2018-02-25T05:20:50.937Z,83.13
2018-02-25T05:23:18.486Z,83.46
2018-02-25T05:25:46.807Z,83.40
2018-02-25T05:28:15.201Z,83.87
2018-02-25T05:30:43.526Z,83.85
2018-02-25T05:33:11.872Z,82.92
2018-02-25T05:35:40.189Z,83.35
2018-02-25T05:38:07.730Z,84.02
2018-02-25T05:40:35.326Z,83.67
2018-02-25T05:43:02.879Z,83.85
2018-02-25T05:45:30.425Z,83.93
2018-02-25T05:47:58.054Z,83.86
2018-02-25T05:50:25.621Z,83.54
2018-02-25T05:52:53.171Z,83.36
2018-02-25T05:55:20.722Z,83.64
2018-02-25T05:57:48.274Z,84.22
2018-02-25T06:00:15.827Z,83.58
2018-02-25T06:02:44.258Z,82.56
2018-02-25T06:05:11.806Z,83.02
2018-02-25T06:07:39.393Z,82.49
2018-02-25T06:10:06.979Z,83.62
2018-02-25T06:12:35.435Z,83.27
2018-02-25T06:15:02.990Z,82.54
2018-02-25T06:17:31.477Z,84.13
2018-02-25T06:19:59.043Z,82.93
2018-02-25T06:22:27.546Z,82.26
2018-02-25T06:24:55.125Z,82.73
2018-02-25T06:27:23.544Z,82.36
2018-02-25T06:29:51.136Z,83.46
2018-02-25T06:32:19.535Z,82.79
2018-02-25T06:34:48.103Z,82.43
2018-02-25T06:37:15.655Z,82.90
2018-02-25T06:39:43.246Z,82.22
2018-02-25T06:42:11.636Z,81.95
2018-02-25T06:44:40.026Z,82.04
2018-02-25T06:47:07.579Z,81.67
2018-02-25T06:49:36.035Z,81.40
2018-02-25T06:52:04.415Z,81.61
2018-02-25T06:54:31.967Z,80.99
2018-02-25T06:56:59.558Z,80.13
2018-02-25T06:59:27.110Z,79.64
2018-02-25T07:01:54.662Z,79.69
2018-02-25T07:04:23.149Z,79.49
2018-02-25T07:06:50.734Z,79.80
2018-02-25T07:09:19.542Z,79.74
2018-02-25T07:11:47.100Z,79.01
2018-02-25T07:14:14.659Z,79.93
2018-02-25T07:16:43.066Z,79.32
2018-02-25T07:19:10.619Z,78.59
2018-02-25T07:21:39.106Z,77.83
2018-02-25T07:24:07.437Z,76.35
2018-02-25T07:26:35.063Z,76.60
2018-02-25T07:29:03.328Z,75.17
2018-02-25T07:31:30.924Z,76.19
2018-02-25T07:33:58.475Z,76.10
2018-02-25T07:36:26.218Z,74.62
2018-02-25T07:38:53.772Z,75.12
2018-02-25T07:41:22.244Z,74.44
2018-02-25T07:43:50.584Z,74.40
2018-02-25T07:46:18.213Z,73.18
2018-02-25T07:48:46.860Z,73.27
2018-02-25T07:51:14.520Z,72.85
2018-02-25T07:53:42.071Z,72.74
2018-02-25T07:56:09.672Z,72.11
2018-02-25T07:58:37.231Z,73.77
2018-02-25T08:01:04.816Z,72.99
2018-02-25T08:03:32.379Z,71.13
2018-02-25T08:06:00.017Z,72.97
2018-02-25T08:08:27.707Z,72.81
2018-02-25T08:10:55.359Z,71.41
2018-02-25T08:13:23.707Z,68.90
2018-02-25T08:15:51.289Z,69.12
2018-02-25T08:18:18.979Z,67.80
2018-02-25T08:20:46.592Z,65.36
2018-02-25T08:23:14.162Z,66.66
2018-02-25T08:25:41.715Z,64.41
2018-02-25T08:28:09.268Z,65.62
2018-02-25T08:30:37.037Z,62.47
2018-02-25T08:33:04.699Z,60.95
2018-02-25T08:35:32.722Z,59.90
2018-02-25T08:38:00.518Z,60.92
2018-02-25T08:40:28.102Z,60.79
2018-02-25T08:42:55.696Z,60.80
2018-02-25T08:45:23.437Z,59.87
2018-02-25T08:47:51.094Z,58.84
2018-02-25T08:50:18.802Z,60.16
2018-02-25T08:52:47.556Z,59.51
2018-02-25T08:55:15.191Z,58.51
2018-02-25T08:57:42.824Z,57.21
2018-02-25T09:00:10.642Z,57.92
2018-02-25T09:02:38.407Z,58.39
2018-02-25T09:05:05.974Z,56.92
2018-02-25T09:07:33.570Z,56.53
2018-02-25T09:10:01.124Z,52.80
2018-02-25T09:12:28.834Z,52.90
2018-02-25T09:14:56.389Z,54.11
2018-02-25T09:17:23.970Z,53.71
2018-02-25T09:19:51.554Z,55.94
2018-02-25T09:22:19.111Z,54.00
2018-02-25T09:24:46.718Z,54.10
2018-02-25T09:27:14.287Z,52.50
2018-02-25T09:29:41.850Z,52.72
2018-02-25T09:32:09.416Z,56.94
2018-02-25T09:34:36.979Z,55.59
2018-02-25T09:37:04.534Z,53.45
2018-02-25T09:39:32.890Z,54.78
2018-02-25T09:42:00.661Z,51.24
2018-02-25T09:44:28.984Z,55.76
2018-02-25T09:46:56.535Z,54.80
2018-02-25T09:49:24.089Z,53.87
2018-02-25T09:51:51.652Z,54.06
2018-02-25T09:54:19.205Z,54.12
2018-02-25T09:56:46.804Z,51.75
2018-02-25T09:59:14.386Z,52.88
2018-02-25T10:01:41.970Z,53.73
2018-02-25T10:04:09.519Z,51.42
2018-02-25T10:06:37.067Z,51.77
2018-02-25T10:09:04.617Z,51.39
2018-02-25T10:11:32.230Z,53.69
2018-02-25T10:14:00.628Z,52.14
2018-02-25T10:16:28.175Z,53.05
2018-02-25T10:18:56.561Z,53.92
2018-02-25T10:21:24.112Z,52.66
2018-02-25T10:23:52.529Z,52.10
2018-02-25T10:26:20.088Z,49.95
2018-02-25T10:28:47.643Z,51.79
2018-02-25T10:31:15.210Z,52.47
2018-02-25T10:33:43.810Z,51.38
2018-02-25T10:36:12.156Z,53.00
2018-02-25T10:38:39.743Z,51.63
2018-02-25T10:41:07.341Z,55.35
2018-02-25T10:43:34.894Z,50.54
2018-02-25T10:46:02.444Z,51.57
2018-02-25T10:48:30.030Z,51.74
2018-02-25T10:50:57.581Z,50.79
2018-02-25T10:53:26.067Z,52.33
2018-02-25T10:55:53.659Z,51.03
2018-02-25T10:58:21.206Z,49.41
2018-02-25T11:00:54.463Z,49.35
2018-02-25T11:03:22.013Z,50.62
2018-02-25T11:05:49.621Z,48.96
2018-02-25T11:08:17.180Z,48.34
2018-02-25T11:10:44.739Z,49.51
2018-02-25T11:13:12.314Z,48.71
2018-02-25T11:15:39.858Z,48.42
2018-02-25T11:18:08.284Z,49.00
2018-02-25T11:20:35.840Z,49.65
2018-02-25T11:23:04.292Z,49.12
2018-02-25T11:25:31.855Z,49.93
2018-02-25T11:27:59.444Z,47.42
2018-02-25T11:30:27.000Z,48.16
2018-02-25T11:32:54.588Z,48.78
2018-02-25T11:35:22.145Z,48.74
2018-02-25T11:37:50.599Z,47.93
2018-02-25T11:40:18.967Z,46.62
2018-02-25T11:42:46.514Z,48.67
2018-02-25T11:45:14.073Z,45.05
2018-02-25T11:47:41.687Z,45.45
2018-02-25T11:50:09.217Z,47.23
2018-02-25T11:52:36.814Z,45.86
2018-02-25T11:55:04.396Z,44.81
2018-02-25T11:57:32.958Z,45.74
2018-02-25T12:00:00.519Z,45.12
2018-02-25T12:02:28.130Z,44.90
2018-02-25T12:04:55.788Z,45.78
2018-02-25T12:07:23.341Z,46.47
2018-02-25T12:09:51.792Z,44.25
2018-02-25T12:12:19.347Z,45.06
2018-02-25T12:14:46.900Z,45.93
2018-02-25T12:17:14.452Z,45.35
2018-02-25T12:19:42.011Z,44.97
2018-02-25T12:22:10.379Z,46.51
2018-02-25T12:24:37.976Z,46.82
2018-02-25T12:27:06.223Z,43.96
2018-02-25T12:29:33.783Z,43.96
2018-02-25T12:32:01.338Z,43.66
2018-02-25T12:34:28.926Z,42.62
2018-02-25T12:36:57.259Z,44.80
2018-02-25T12:39:24.811Z,44.10
2018-02-25T12:41:52.373Z,45.39
2018-02-25T12:44:19.935Z,43.17
2018-02-25T12:46:48.310Z,42.87
2018-02-25T12:49:15.850Z,44.01
2018-02-25T12:51:44.255Z,43.58
2018-02-25T12:54:11.847Z,44.41
2018-02-25T12:56:39.411Z,43.59
2018-02-25T12:59:07.011Z,43.83
2018-02-25T13:01:35.460Z,43.89
2018-02-25T13:04:03.011Z,44.17
2018-02-25T13:06:30.569Z,43.83
2018-02-25T13:08:58.122Z,45.04
2018-02-25T13:11:25.671Z,43.08
2018-02-25T13:13:53.223Z,44.45
2018-02-25T13:16:20.781Z,44.73
2018-02-25T13:18:48.373Z,44.96
2018-02-25T13:21:15.934Z,44.73
2018-02-25T13:23:43.476Z,44.25
2018-02-25T13:26:11.875Z,43.37
2018-02-25T13:28:40.219Z,43.08
2018-02-25T13:31:07.770Z,43.89
2018-02-25T13:33:35.323Z,44.37
2018-02-25T13:36:03.693Z,43.86
2018-02-25T13:38:31.942Z,43.82
2018-02-25T13:41:00.463Z,43.74
2018-02-25T13:43:28.794Z,44.21
2018-02-25T13:45:56.349Z,44.21
2018-02-25T13:48:24.771Z,45.69
2018-02-25T13:50:53.103Z,46.13
2018-02-25T13:53:21.507Z,44.43
2018-02-25T13:55:49.053Z,43.80
2018-02-25T13:58:16.642Z,45.16
2018-02-25T14:00:44.203Z,44.39
2018-02-25T14:03:12.562Z,44.39
2018-02-25T14:05:40.160Z,44.63
2018-02-25T14:08:07.720Z,45.80
2018-02-25T14:10:35.326Z,45.35
2018-02-25T14:13:02.860Z,45.35
2018-02-25T14:15:31.355Z,44.39
2018-02-25T14:17:58.915Z,44.63
2018-02-25T14:20:26.499Z,44.24
2018-02-25T14:22:54.047Z,45.83
2018-02-25T14:25:21.644Z,46.11
2018-02-25T14:27:49.204Z,46.05
2018-02-25T14:30:16.798Z,45.71
2018-02-25T14:32:44.355Z,45.84
2018-02-25T14:35:12.895Z,45.89
2018-02-25T14:37:40.487Z,46.45
2018-02-25T14:40:08.096Z,46.66
2018-02-25T14:42:35.684Z,46.43
2018-02-25T14:45:04.052Z,46.48
2018-02-25T14:47:31.639Z,47.10
2018-02-25T14:49:59.224Z,48.17
2018-02-25T14:52:26.779Z,48.31
2018-02-25T14:54:54.371Z,46.90
2018-02-25T14:57:22.950Z,46.33
2018-02-25T14:59:50.543Z,47.26
2018-02-25T15:02:18.098Z,46.75
2018-02-25T15:04:45.715Z,46.55
2018-02-25T15:07:13.422Z,48.96
2018-02-25T15:09:41.003Z,49.08
2018-02-25T15:12:08.672Z,48.55
2018-02-25T15:14:36.218Z,49.89
2018-02-25T15:17:03.764Z,50.64
2018-02-25T15:19:31.314Z,50.01
2018-02-25T15:21:58.865Z,50.05
2018-02-25T15:24:26.426Z,48.76
2018-02-25T15:26:53.988Z,49.46
2018-02-25T15:29:21.545Z,48.70
2018-02-25T15:31:49.108Z,51.64
2018-02-25T15:34:16.659Z,49.77
2018-02-25T15:36:45.127Z,51.55
2018-02-25T15:39:12.687Z,50.75
2018-02-25T15:41:40.232Z,50.37
2018-02-25T15:44:07.779Z,50.00
2018-02-25T15:46:35.333Z,50.19
2018-02-25T15:49:02.918Z,49.16
2018-02-25T15:51:30.472Z,49.20
2018-02-25T15:53:58.016Z,50.86
2018-02-25T15:56:25.567Z,50.22
2018-02-25T15:58:53.117Z,51.16
2018-02-25T16:01:21.586Z,50.49
2018-02-25T16:03:49.135Z,51.44
2018-02-25T16:06:16.731Z,52.08
2018-02-25T16:08:44.278Z,52.37
2018-02-25T16:11:11.822Z,53.87
2018-02-25T16:13:39.377Z,53.27
2018-02-25T16:16:06.918Z,54.90
2018-02-25T16:18:34.476Z,53.68
2018-02-25T16:21:02.028Z,54.38
2018-02-25T16:23:29.578Z,53.44
2018-02-25T16:25:57.126Z,55.09
2018-02-25T16:28:24.679Z,56.24
2018-02-25T16:30:52.233Z,54.57
2018-02-25T16:33:19.779Z,55.79
2018-02-25T16:35:47.420Z,56.99
2018-02-25T16:38:14.983Z,55.65
2018-02-25T16:40:43.317Z,56.65
2018-02-25T16:43:10.868Z,57.15
2018-02-25T16:45:38.490Z,57.49
2018-02-25T16:48:06.044Z,57.45
2018-02-25T16:50:33.954Z,57.43
2018-02-25T16:53:01.506Z,60.23
2018-02-25T16:55:29.141Z,58.79
2018-02-25T16:57:56.717Z,58.49
2018-02-25T17:00:24.275Z,59.89
2018-02-25T17:02:51.826Z,61.49
2018-02-25T17:05:19.702Z,60.22
2018-02-25T17:07:47.266Z,62.49
2018-02-25T17:10:15.646Z,62.28
2018-02-25T17:12:44.073Z,62.78
2018-02-25T17:15:11.705Z,63.20
2018-02-25T17:17:39.256Z,63.35
2018-02-25T17:20:07.361Z,63.52
2018-02-25T17:22:34.917Z,61.25
2018-02-25T17:25:02.526Z,62.76
2018-02-25T17:27:30.076Z,63.42
2018-02-25T17:29:57.688Z,63.46
2018-02-25T17:32:25.664Z,63.64
2018-02-25T17:34:53.211Z,63.32
2018-02-25T17:37:20.850Z,63.65
2018-02-25T17:39:48.402Z,61.90
2018-02-25T17:42:16.743Z,61.84
2018-02-25T17:44:44.302Z,62.87
2018-02-25T17:47:11.898Z,62.41
2018-02-25T17:49:39.491Z,60.60
2018-02-25T17:52:07.033Z,59.70
2018-02-25T17:54:34.590Z,61.31
2018-02-25T17:57:02.146Z,61.51
2018-02-25T17:59:30.524Z,62.86
2018-02-25T18:01:58.103Z,63.24
2018-02-25T18:04:26.481Z,63.85
2018-02-25T18:06:54.822Z,63.38
2018-02-25T18:09:22.370Z,64.83
2018-02-25T18:11:49.983Z,62.74
2018-02-25T18:14:17.574Z,65.37
2018-02-25T18:16:45.154Z,66.04
2018-02-25T18:19:13.933Z,63.55
2018-02-25T18:21:41.548Z,63.44
2018-02-25T18:24:09.101Z,64.51
2018-02-25T18:26:36.691Z,64.56
2018-02-25T18:29:04.255Z,65.54
2018-02-25T18:31:41.462Z,65.10
2018-02-25T18:34:18.859Z,64.23
2018-02-25T18:36:57.478Z,63.80
2018-02-25T18:39:28.088Z,64.89
2018-02-25T18:41:56.569Z,66.79
2018-02-25T18:44:25.643Z,66.64
2018-02-25T18:46:54.851Z,65.65
2018-02-25T18:49:26.313Z,66.83
2018-02-25T18:51:53.899Z,66.50
2018-02-25T18:54:26.884Z,66.45
2018-02-25T18:56:54.496Z,68.02
2018-02-25T18:59:22.059Z,66.56
2018-02-25T19:01:49.720Z,68.34
2018-02-25T19:04:17.281Z,67.33
2018-02-25T19:06:45.180Z,66.05
2018-02-25T19:09:12.807Z,65.38
2018-02-25T19:11:40.367Z,65.24
2018-02-25T19:14:07.958Z,65.37
2018-02-25T19:16:35.750Z,65.62
2018-02-25T19:19:09.182Z,65.04
2018-02-25T19:21:36.755Z,65.25
2018-02-25T19:24:04.704Z,65.35
2018-02-25T19:26:32.491Z,66.16
2018-02-25T19:29:00.048Z,65.83
2018-02-25T19:31:28.316Z,66.28
2018-02-25T19:33:57.584Z,65.85
2018-02-25T19:36:30.763Z,65.65
2018-02-25T19:39:03.900Z,65.28
2018-02-25T19:41:38.518Z,64.76
2018-02-25T19:44:06.203Z,65.55
2018-02-25T19:46:33.761Z,64.87
2018-02-25T19:49:01.320Z,65.14
2018-02-25T19:51:28.885Z,64.42
2018-02-25T19:53:56.441Z,64.77
2018-02-25T19:56:23.986Z,64.53
2018-02-25T19:58:51.539Z,65.09
2018-02-25T20:01:19.099Z,64.71
2018-02-25T20:03:59.134Z,64.71
2018-02-25T20:06:26.685Z,65.04
2018-02-25T20:08:58.635Z,67.81
2018-02-25T20:11:26.197Z,67.40
2018-02-25T20:13:55.197Z,68.52
2018-02-25T20:16:22.807Z,67.73
2018-02-25T20:18:50.369Z,67.26
2018-02-25T20:21:17.971Z,68.75
2018-02-25T20:23:45.562Z,67.33
2018-02-25T20:26:13.212Z,67.76
2018-02-25T20:28:42.514Z,66.79
2018-02-25T20:31:10.141Z,67.31
2018-02-25T20:33:37.691Z,66.73
2018-02-25T20:36:05.247Z,66.76
2018-02-25T20:38:32.812Z,66.80
2018-02-25T20:41:00.362Z,68.75
2018-02-25T20:43:27.940Z,70.04
2018-02-25T20:45:55.510Z,71.54
2018-02-25T20:48:23.760Z,72.46
2018-02-25T20:50:51.327Z,72.37
2018-02-25T20:53:19.907Z,74.06
2018-02-25T20:55:48.167Z,74.42
2018-02-25T20:58:15.790Z,74.33
2018-02-25T21:00:43.342Z,75.01
2018-02-25T21:03:10.895Z,75.15
2018-02-25T21:05:38.449Z,75.70
2018-02-25T21:08:05.998Z,75.38
2018-02-25T21:10:34.473Z,75.72
2018-02-25T21:13:02.054Z,76.03
2018-02-25T21:15:31.181Z,76.53
2018-02-25T21:17:58.762Z,75.33
2018-02-25T21:20:26.326Z,75.20
2018-02-25T21:22:54.208Z,75.09
2018-02-25T21:25:21.764Z,75.45
2018-02-25T21:27:49.323Z,75.33
2018-02-25T21:30:16.943Z,75.84
2018-02-25T21:32:44.503Z,76.36
2018-02-25T21:35:12.130Z,76.97
2018-02-25T21:37:39.696Z,76.53
2018-02-25T21:40:07.242Z,76.91
2018-02-25T21:42:34.811Z,76.86
2018-02-25T21:45:02.358Z,77.10
2018-02-25T21:47:29.908Z,77.17
2018-02-25T21:49:57.458Z,77.35
2018-02-25T21:52:25.083Z,78.33
2018-02-25T21:54:57.670Z,79.23
2018-02-25T21:57:31.002Z,79.15
2018-02-25T22:00:04.031Z,79.45
2018-02-25T22:02:37.307Z,80.11
2018-02-25T22:05:04.854Z,80.63
2018-02-25T22:07:32.472Z,80.96
2018-02-25T22:10:00.019Z,81.64
2018-02-25T22:12:27.570Z,80.85
2018-02-25T22:14:55.262Z,80.67
2018-02-25T22:17:22.874Z,80.46
2018-02-25T22:19:50.440Z,80.83
2018-02-25T22:22:17.990Z,80.88
2018-02-25T22:24:45.695Z,81.11
2018-02-25T22:27:13.376Z,80.43
2018-02-25T22:29:40.998Z,81.19
2018-02-25T22:32:09.492Z,81.35
2018-02-25T22:34:37.846Z,80.75
2018-02-25T22:37:06.011Z,81.33
2018-02-25T22:39:33.623Z,81.65
2018-02-25T22:42:01.431Z,81.67
2018-02-25T22:44:28.982Z,81.28
2018-02-25T22:46:56.569Z,81.06
2018-02-25T22:49:24.148Z,80.31
2018-02-25T22:51:51.738Z,80.69
2018-02-25T22:54:20.191Z,80.75
2018-02-25T22:56:47.753Z,81.41
2018-02-25T22:59:15.306Z,81.25
2018-02-25T23:01:42.873Z,82.15
2018-02-25T23:04:11.362Z,82.17
2018-02-25T23:06:38.917Z,81.77
2018-02-25T23:09:07.163Z,82.52
2018-02-25T23:11:34.714Z,82.88
2018-02-25T23:14:02.311Z,82.88
2018-02-25T23:16:29.901Z,82.75
2018-02-25T23:18:57.534Z,82.48
2018-02-25T23:21:25.135Z,82.96
2018-02-25T23:23:52.688Z,83.16
2018-02-25T23:26:20.314Z,83.71
2018-02-25T23:28:48.679Z,82.96
2018-02-25T23:31:16.955Z,83.02
2018-02-25T23:33:45.290Z,82.96
2018-02-25T23:36:12.875Z,83.50
2018-02-25T23:38:41.235Z,84.21
2018-02-25T23:41:08.908Z,83.92
2018-02-25T23:43:36.570Z,84.47
2018-02-25T23:46:04.148Z,84.68
2018-02-25T23:48:32.499Z,84.50
2018-02-25T23:51:00.054Z,84.59
2018-02-25T23:53:27.614Z,84.84
2018-02-25T23:55:55.255Z,85.76
2018-02-25T23:58:22.908Z,85.20
